FVBU

Joshua Mqabuko Nkomo International Airport

Bulawayo, Zimbabwe
FVBU 250400Z 2506/2612 12008KT CAVOK
Issued Valid From Valid To
Apr-25 @ 04:00 UTC
(14 hours ago)
Apr-25 @ 06:00 UTC
(12 hours ago)
Apr-26 @ 12:00 UTC
(in 18 hours)
Apr-25 @ 06:00 to Apr-26 @ 12:00
FVBU 250400Z 2506/2612 12008KT CAVOK
Wind Visibility Clouds Conditions
120° at 8 knots 10,000+ meters
  • No significant clouds
FVBU 250400Z 2506/2612 12008KT CAVOK
Issued Apr-25 @ 04:00 UTC
(14 hours ago)
Valid From Apr-25 @ 06:00 UTC
(12 hours ago)
Valid To Apr-26 @ 12:00 UTC
(in 18 hours)
Apr-25 @ 06:00 - Apr-26 @ 12:00
Wind Visibility
120° at 8 knots 10,000+ meters
Clouds
  • No significant clouds
Conditions